KPWM/PWM METAR and TAF weather

Enter ICAO airport designator
Station Type Date Time Source
KPWM METAR 2019/07/15 19:51 UTC NOAA

KPWM 151951Z 34010G14KT 10SM FEW050 FEW200 28/13 A2993 RMK AO2 SLP136 T02780133


Station Type Date Time Source
KPWM Decoded METAR 2019/07/15 19:51 UTC NOAA

PORTLAND INTERNATIONAL JETPORT, ME, United States (KPWM) 43-39N 70-18W 15M
Jul 15, 2019 - 03:51 PM EDT / 2019.07.15 1951 UTC
Wind: from the NNW (340 degrees) at 12 MPH (10 KT) gusting to 16 MPH (14 KT):0
Visibility: 10 mile(s):0
Sky conditions: mostly clear
Temperature: 82.0 F (27.8 C)
Dew Point: 55.9 F (13.3 C)
Relative Humidity: 40%
Pressure (altimeter): 29.93 in. Hg (1013 hPa)
ob: KPWM 151951Z 34010G14KT 10SM FEW050 FEW200 28/13 A2993 RMK AO2 SLP136 T02780133
cycle: 20

Station Type Date Time Source
KPWM TAF 2019/07/15 20:58 UTC NOAA

TAF
AMD KPWM 151956Z 1520/1618 32010G18KT P6SM FEW050
FM152300 31007KT P6SM SKC
FM161700 17009KT P6SM SKC

Example: see airport list